createdAt,value
2019-05-23T00:00:54.120Z,100386.98
2019-05-23T00:04:01.626Z,100384.70
2019-05-23T00:06:52.328Z,100382.61
2019-05-23T00:09:42.653Z,100382.43
2019-05-23T00:12:33.204Z,100379.56
2019-05-23T00:15:11.252Z,100380.89
2019-05-23T00:17:43.683Z,100376.90
2019-05-23T00:20:16.773Z,100376.13
2019-05-23T00:22:49.147Z,100375.01
2019-05-23T00:25:20.589Z,100373.47
2019-05-23T00:27:54.199Z,100369.47
2019-05-23T00:30:27.665Z,100369.47
2019-05-23T00:33:00.585Z,100367.22
2019-05-23T00:35:33.783Z,100368.55
2019-05-23T00:38:06.045Z,100367.98
2019-05-23T00:40:39.546Z,100370.47
2019-05-23T00:43:12.822Z,100361.70
2019-05-23T00:45:45.201Z,100355.61
2019-05-23T00:48:17.574Z,100361.16
2019-05-23T00:50:50.772Z,100359.22
2019-05-23T00:53:22.531Z,100360.38
2019-05-23T00:55:54.589Z,100360.38
2019-05-23T00:58:26.862Z,100360.55
2019-05-23T01:01:00.050Z,100358.67
2019-05-23T01:03:32.284Z,100359.36
2019-05-23T01:06:03.669Z,100349.56
2019-05-23T01:08:35.530Z,100351.06
2019-05-23T01:11:07.391Z,100344.03
2019-05-23T01:13:40.378Z,100352.48
2019-05-23T01:16:12.359Z,100343.27
2019-05-23T01:18:43.684Z,100347.24
2019-05-23T01:21:28.972Z,100349.91
2019-05-23T01:24:05.324Z,100344.22
2019-05-23T01:26:36.878Z,100344.97
2019-05-23T01:29:09.300Z,100346.13
2019-05-23T01:31:42.445Z,100346.11
2019-05-23T01:34:15.024Z,100348.47
2019-05-23T01:36:47.123Z,100350.09
2019-05-23T01:39:19.313Z,100357.81
2019-05-23T01:41:51.232Z,100349.91
2019-05-23T01:44:24.203Z,100354.09
2019-05-23T01:46:56.069Z,100357.63
2019-05-23T01:49:28.948Z,100356.21
2019-05-23T01:52:00.396Z,100345.91
2019-05-23T01:54:32.156Z,100347.83
2019-05-23T01:57:03.960Z,100342.69
2019-05-23T01:59:35.875Z,100334.70
2019-05-23T02:02:08.033Z,100332.98
2019-05-23T02:04:40.924Z,100334.53
2019-05-23T02:07:13.907Z,100340.23
2019-05-23T02:09:46.296Z,100332.51
2019-05-23T02:12:18.657Z,100338.91
2019-05-23T02:14:50.099Z,100338.31
2019-05-23T02:17:21.857Z,100343.27
2019-05-23T02:19:55.067Z,100339.63
2019-05-23T02:22:28.306Z,100344.29
2019-05-23T02:25:00.006Z,100344.77
2019-05-23T02:27:31.764Z,100346.77
2019-05-23T02:30:05.780Z,100344.20
2019-05-23T02:32:37.379Z,100352.57
2019-05-23T02:35:10.762Z,100353.98
2019-05-23T02:37:44.112Z,100354.34
2019-05-23T02:40:23.150Z,100352.83
2019-05-23T02:43:02.082Z,100353.66
2019-05-23T02:45:51.543Z,100356.47
2019-05-23T02:48:24.936Z,100350.89
2019-05-23T02:51:01.049Z,100355.52
2019-05-23T02:53:33.801Z,100353.96
2019-05-23T02:56:08.808Z,100352.11
2019-05-23T02:58:48.113Z,100356.11
2019-05-23T03:01:36.922Z,100351.16
2019-05-23T03:04:10.462Z,100360.83
2019-05-23T03:06:41.985Z,100356.48
2019-05-23T03:09:15.658Z,100354.30
2019-05-23T03:11:50.015Z,100360.68
2019-05-23T03:14:22.577Z,100353.83
2019-05-23T03:16:54.530Z,100352.20
2019-05-23T03:19:47.238Z,100360.88
2019-05-23T03:22:31.839Z,100358.64
2019-05-23T03:25:10.840Z,100347.61
2019-05-23T03:27:44.650Z,100358.02
2019-05-23T03:30:18.047Z,100360.64
2019-05-23T03:32:51.828Z,100355.78
2019-05-23T03:35:36.203Z,100354.98
2019-05-23T03:38:09.113Z,100355.12
2019-05-23T03:40:41.566Z,100352.58
2019-05-23T03:43:13.618Z,100347.98
2019-05-23T03:45:52.586Z,100350.97
2019-05-23T03:48:24.823Z,100357.58
2019-05-23T03:50:57.942Z,100354.60
2019-05-23T03:53:30.823Z,100360.56
2019-05-23T03:56:03.849Z,100362.37
2019-05-23T03:58:35.751Z,100365.70
2019-05-23T04:01:09.043Z,100359.80
2019-05-23T04:03:42.682Z,100355.72
2019-05-23T04:06:14.506Z,100352.28
2019-05-23T04:08:46.885Z,100351.14
2019-05-23T04:11:19.029Z,100357.27
2019-05-23T04:13:50.405Z,100359.80
2019-05-23T04:16:23.186Z,100354.22
2019-05-23T04:18:54.843Z,100353.34
2019-05-23T04:21:27.409Z,100356.41
2019-05-23T04:23:59.058Z,100365.56
2019-05-23T04:26:31.115Z,100370.02
2019-05-23T04:29:03.484Z,100362.70
2019-05-23T04:31:35.064Z,100362.95
2019-05-23T04:34:06.399Z,100364.81
2019-05-23T04:36:38.057Z,100368.70
2019-05-23T04:39:10.012Z,100363.72
2019-05-23T04:41:42.026Z,100368.50
2019-05-23T04:44:15.377Z,100366.50
2019-05-23T04:46:46.944Z,100369.84
2019-05-23T04:49:19.709Z,100363.98
2019-05-23T04:51:51.678Z,100366.80
2019-05-23T04:54:23.357Z,100363.53
2019-05-23T04:56:56.844Z,100358.66
2019-05-23T04:59:28.380Z,100362.75
2019-05-23T05:02:00.242Z,100361.95
2019-05-23T05:04:31.889Z,100369.19
2019-05-23T05:07:04.910Z,100373.38
2019-05-23T05:09:38.173Z,100364.50
2019-05-23T05:12:10.250Z,100357.25
2019-05-23T05:14:41.804Z,100361.25
2019-05-23T05:17:13.708Z,100353.31
2019-05-23T05:19:44.995Z,100353.98
2019-05-23T05:22:16.958Z,100354.13
2019-05-23T05:24:48.620Z,100351.14
2019-05-23T05:27:21.409Z,100353.84
2019-05-23T05:29:53.154Z,100358.92
2019-05-23T05:32:41.461Z,100370.33
2019-05-23T05:34:58.109Z,100367.25
2019-05-23T05:37:30.477Z,100372.01
2019-05-23T05:40:02.126Z,100372.23
2019-05-23T05:42:34.819Z,100369.36
2019-05-23T05:45:09.220Z,100377.65
2019-05-23T05:47:47.308Z,100374.39
2019-05-23T05:50:18.791Z,100372.84
2019-05-23T05:52:50.445Z,100383.78
2019-05-23T05:55:21.788Z,100383.81
2019-05-23T05:57:59.072Z,100390.90
2019-05-23T06:00:52.667Z,100389.20
2019-05-23T06:03:24.096Z,100382.02
2019-05-23T06:05:56.983Z,100375.18
2019-05-23T06:08:31.621Z,100374.01
2019-05-23T06:11:02.953Z,100371.65
2019-05-23T06:13:35.257Z,100377.52
2019-05-23T06:16:06.776Z,100370.72
2019-05-23T06:18:51.346Z,100371.47
2019-05-23T06:21:24.413Z,100358.75
2019-05-23T06:23:55.391Z,100364.12
2019-05-23T06:26:26.511Z,100360.52
2019-05-23T06:28:58.982Z,100363.33
2019-05-23T06:31:34.129Z,100358.87
2019-05-23T06:34:05.774Z,100364.49
2019-05-23T06:36:37.223Z,100361.42
2019-05-23T06:39:10.729Z,100365.29
2019-05-23T06:41:42.103Z,100375.05
2019-05-23T06:44:14.131Z,100371.78
2019-05-23T06:46:46.191Z,100361.56
2019-05-23T06:49:19.443Z,100362.03
2019-05-23T06:51:50.737Z,100359.35
2019-05-23T06:54:22.897Z,100363.27
2019-05-23T06:56:54.989Z,100371.55
2019-05-23T06:59:27.250Z,100373.95
2019-05-23T07:02:03.069Z,100370.31
2019-05-23T07:04:34.436Z,100369.37
2019-05-23T07:07:07.545Z,100371.13
2019-05-23T07:09:38.877Z,100371.53
2019-05-23T07:12:12.583Z,100370.45
2019-05-23T07:14:44.239Z,100371.19
2019-05-23T07:17:16.685Z,100364.34
2019-05-23T07:19:48.239Z,100366.71
2019-05-23T07:22:21.764Z,100369.67
2019-05-23T07:24:58.037Z,100368.51
2019-05-23T07:27:33.263Z,100370.58
2019-05-23T07:30:09.120Z,100365.77
2019-05-23T07:32:40.498Z,100356.89
2019-05-23T07:35:12.018Z,100360.97
2019-05-23T07:37:43.470Z,100357.66
2019-05-23T07:40:15.465Z,100352.09
2019-05-23T07:42:46.884Z,100356.47
2019-05-23T07:45:39.961Z,100358.48
2019-05-23T07:48:13.027Z,100355.16
2019-05-23T07:50:53.489Z,100353.20
2019-05-23T07:53:26.693Z,100357.91
2019-05-23T07:56:00.080Z,100363.06
2019-05-23T07:58:32.342Z,100361.52
2019-05-23T08:01:07.849Z,100358.50
2019-05-23T08:03:41.086Z,100354.48
2019-05-23T08:06:13.167Z,100356.13
2019-05-23T08:08:49.819Z,100354.14
2019-05-23T08:11:22.907Z,100356.13
2019-05-23T08:13:54.577Z,100352.84
2019-05-23T08:16:26.319Z,100359.36
2019-05-23T08:18:57.687Z,100353.73
2019-05-23T08:21:50.768Z,100356.50
2019-05-23T08:24:22.081Z,100345.46
2019-05-23T08:26:54.963Z,100344.47
2019-05-23T08:29:27.075Z,100346.00
2019-05-23T08:32:01.315Z,100348.91
2019-05-23T08:34:44.051Z,100348.59
2019-05-23T08:37:19.502Z,100349.49
2019-05-23T08:39:51.791Z,100345.58
2019-05-23T08:42:24.150Z,100343.45
2019-05-23T08:44:56.112Z,100349.27
2019-05-23T08:47:31.114Z,100355.69
2019-05-23T08:50:03.667Z,100358.90
2019-05-23T08:52:35.173Z,100360.42
2019-05-23T08:55:15.797Z,100352.81
2019-05-23T08:57:49.685Z,100350.09
2019-05-23T09:00:20.996Z,100347.23
2019-05-23T09:02:58.047Z,100347.14
2019-05-23T09:05:28.805Z,100344.87
2019-05-23T09:08:00.780Z,100346.03
2019-05-23T09:10:39.672Z,100350.84
2019-05-23T09:13:12.172Z,100351.88
2019-05-23T09:15:43.038Z,100345.03
2019-05-23T09:18:14.822Z,100348.15
2019-05-23T09:20:46.146Z,100347.12
2019-05-23T09:23:17.558Z,100345.59
2019-05-23T09:25:52.130Z,100353.36
2019-05-23T09:28:23.942Z,100348.30
2019-05-23T09:30:55.841Z,100350.97
2019-05-23T09:33:29.516Z,100346.57
2019-05-23T09:36:00.575Z,100351.89
2019-05-23T09:38:31.887Z,100349.77
2019-05-23T09:41:03.450Z,100339.91
2019-05-23T09:43:35.204Z,100344.48
2019-05-23T09:46:06.546Z,100339.28
2019-05-23T09:48:37.997Z,100344.88
2019-05-23T09:51:09.766Z,100342.79
2019-05-23T09:53:46.908Z,100347.12
2019-05-23T09:56:14.440Z,100348.58
2019-05-23T09:58:46.052Z,100342.19
2019-05-23T10:01:18.016Z,100345.77
2019-05-23T10:03:49.580Z,100346.52
2019-05-23T10:06:21.964Z,100353.47
2019-05-23T10:08:53.603Z,100354.00
2019-05-23T10:11:24.947Z,100359.53
2019-05-23T10:13:56.287Z,100360.17
2019-05-23T10:16:27.846Z,100364.78
2019-05-23T10:19:01.448Z,100361.44
2019-05-23T10:21:32.455Z,100354.75
2019-05-23T10:24:04.813Z,100351.46
2019-05-23T10:26:36.104Z,100357.31
2019-05-23T10:29:07.768Z,100362.80
2019-05-23T10:31:39.318Z,100363.16
2019-05-23T10:34:11.547Z,100360.45
2019-05-23T10:36:43.034Z,100367.89
2019-05-23T10:39:14.705Z,100362.64
2019-05-23T10:41:46.249Z,100365.16
2019-05-23T10:44:18.207Z,100364.65
2019-05-23T10:46:50.273Z,100370.91
2019-05-23T10:49:21.844Z,100368.89
2019-05-23T10:51:53.616Z,100372.24
2019-05-23T10:54:25.128Z,100370.72
2019-05-23T10:56:56.479Z,100366.34
2019-05-23T10:59:28.421Z,100367.53
2019-05-23T11:02:00.196Z,100364.47
2019-05-23T11:04:32.161Z,100366.71
2019-05-23T11:07:03.771Z,100362.45
2019-05-23T11:09:38.268Z,100360.45
2019-05-23T11:12:09.458Z,100358.72
2019-05-23T11:14:41.142Z,100360.36
2019-05-23T11:17:12.592Z,100355.09
2019-05-23T11:19:44.530Z,100359.47
2019-05-23T11:22:15.905Z,100353.69
2019-05-23T11:24:47.457Z,100347.56
2019-05-23T11:27:19.322Z,100351.73
2019-05-23T11:29:51.066Z,100354.70
2019-05-23T11:32:23.401Z,100353.70
2019-05-23T11:34:55.198Z,100356.58
2019-05-23T11:37:26.892Z,100362.69
2019-05-23T11:39:58.403Z,100354.40
2019-05-23T11:42:29.652Z,100356.34
2019-05-23T11:45:01.212Z,100353.73
2019-05-23T11:47:32.867Z,100355.61
2019-05-23T11:50:07.528Z,100350.23
2019-05-23T11:52:39.750Z,100359.44
2019-05-23T11:55:11.533Z,100359.73
2019-05-23T11:57:43.211Z,100358.31
2019-05-23T12:00:19.091Z,100359.31
2019-05-23T12:02:51.293Z,100363.42
2019-05-23T12:05:30.123Z,100360.22
2019-05-23T12:08:01.769Z,100356.02
2019-05-23T12:10:34.760Z,100362.09
2019-05-23T12:13:06.858Z,100355.14
2019-05-23T12:15:40.152Z,100361.92
2019-05-23T12:18:11.583Z,100353.12
2019-05-23T12:20:43.545Z,100356.58
2019-05-23T12:23:14.885Z,100353.52
2019-05-23T12:25:46.917Z,100348.72
2019-05-23T12:28:18.495Z,100347.69
2019-05-23T12:30:49.841Z,100351.60
2019-05-23T12:33:21.243Z,100344.05
2019-05-23T12:35:53.213Z,100342.78
2019-05-23T12:38:24.827Z,100337.03
2019-05-23T12:40:56.270Z,100335.70
2019-05-23T12:43:27.715Z,100336.55
2019-05-23T12:45:59.286Z,100336.86
2019-05-23T12:48:38.197Z,100335.34
2019-05-23T12:51:14.723Z,100335.02
2019-05-23T12:53:46.126Z,100340.88
2019-05-23T12:56:17.661Z,100337.98
2019-05-23T12:58:49.476Z,100327.38
2019-05-23T13:01:21.964Z,100327.48
2019-05-23T13:03:53.772Z,100328.37
2019-05-23T13:06:25.213Z,100321.77
2019-05-23T13:08:56.958Z,100326.13
2019-05-23T13:11:28.859Z,100329.23
2019-05-23T13:14:00.179Z,100316.56
2019-05-23T13:16:32.036Z,100321.33
2019-05-23T13:19:03.716Z,100313.88
2019-05-23T13:21:35.556Z,100314.04
2019-05-23T13:24:07.218Z,100315.27
2019-05-23T13:26:38.981Z,100319.70
2019-05-23T13:29:10.736Z,100313.59
2019-05-23T13:31:43.118Z,100306.61
2019-05-23T13:34:14.653Z,100301.52
2019-05-23T13:36:46.505Z,100294.53
2019-05-23T13:39:18.163Z,100296.58
2019-05-23T13:41:49.701Z,100288.37
2019-05-23T13:44:32.702Z,100291.93
2019-05-23T13:46:54.308Z,100286.02
2019-05-23T13:49:26.382Z,100282.97
2019-05-23T13:51:57.945Z,100282.87
2019-05-23T13:54:29.822Z,100280.34
2019-05-23T13:57:01.821Z,100289.03
2019-05-23T13:59:34.592Z,100288.64
2019-05-23T14:02:09.035Z,100284.54
2019-05-23T14:11:27.180Z,100277.59
2019-05-23T14:14:01.575Z,100284.22
2019-05-23T14:16:43.725Z,100283.27
2019-05-23T14:19:20.073Z,100277.69
2019-05-23T14:21:52.150Z,100275.67
2019-05-23T14:24:23.884Z,100274.20
2019-05-23T14:26:57.593Z,100278.67
2019-05-23T14:29:33.168Z,100280.40
2019-05-23T14:32:22.154Z,100281.45
2019-05-23T14:34:55.802Z,100278.75
2019-05-23T14:37:33.986Z,100280.45
2019-05-23T14:40:18.042Z,100283.92
2019-05-23T14:42:59.661Z,100286.78
2019-05-23T14:45:49.144Z,100284.39
2019-05-23T14:48:26.214Z,100286.88
2019-05-23T14:51:16.693Z,100288.99
2019-05-23T14:53:57.597Z,100285.99
2019-05-23T14:56:36.215Z,100288.13
2019-05-23T14:59:09.028Z,100286.33
2019-05-23T15:01:50.671Z,100293.69
2019-05-23T15:04:27.655Z,100298.83
2019-05-23T15:07:01.643Z,100293.92
2019-05-23T15:09:34.040Z,100292.97
2019-05-23T15:12:08.053Z,100293.32
2019-05-23T15:14:40.990Z,100301.23
2019-05-23T15:17:13.496Z,100298.72
2019-05-23T15:19:48.890Z,100306.20
2019-05-23T15:22:25.524Z,100308.20
2019-05-23T15:24:58.055Z,100313.10
2019-05-23T15:27:33.549Z,100307.81
2019-05-23T15:30:08.025Z,100312.47
2019-05-23T15:32:40.228Z,100316.80
2019-05-23T15:35:14.723Z,100313.82
2019-05-23T15:37:59.387Z,100320.48
2019-05-23T15:40:28.402Z,100326.84
2019-05-23T15:43:00.508Z,100324.23
2019-05-23T15:45:35.799Z,100325.20
2019-05-23T15:48:10.478Z,100330.38
2019-05-23T15:50:49.560Z,100327.09
2019-05-23T15:53:26.788Z,100328.58
2019-05-23T15:56:26.784Z,100338.41
2019-05-23T15:58:46.586Z,100336.92
2019-05-23T16:01:20.914Z,100334.06
2019-05-23T16:04:08.432Z,100337.55
2019-05-23T16:06:41.620Z,100328.50
2019-05-23T16:09:28.745Z,100329.28
2019-05-23T16:11:56.155Z,100334.50
2019-05-23T16:14:31.917Z,100331.17
2019-05-23T16:17:06.005Z,100326.28
2019-05-23T16:19:40.443Z,100324.03
2019-05-23T16:22:13.086Z,100318.20
2019-05-23T16:27:43.679Z,100329.03
2019-05-23T16:30:25.766Z,100330.64
2019-05-23T16:33:10.202Z,100335.61
2019-05-23T16:35:51.935Z,100326.89
2019-05-23T16:38:27.553Z,100328.21
2019-05-23T16:41:11.462Z,100335.73
2019-05-23T16:43:45.439Z,100327.50
2019-05-23T16:46:17.904Z,100331.30
2019-05-23T16:48:51.437Z,100330.28
2019-05-23T16:51:24.062Z,100332.80
2019-05-23T16:54:06.541Z,100333.34
2019-05-23T16:56:57.605Z,100330.48
2019-05-23T17:02:28.958Z,100334.53
2019-05-23T17:05:09.798Z,100347.05
2019-05-23T17:07:57.607Z,100342.14
2019-05-23T17:10:39.246Z,100345.13
2019-05-23T17:13:28.699Z,100342.11
2019-05-23T17:16:18.372Z,100340.09
2019-05-23T17:18:52.621Z,100341.98
2019-05-23T17:21:43.218Z,100340.69
2019-05-23T17:24:33.599Z,100342.78
2019-05-23T17:27:27.301Z,100344.73
2019-05-23T17:30:08.979Z,100345.27
2019-05-23T17:32:52.627Z,100350.28
2019-05-23T17:38:28.323Z,100347.41
2019-05-23T17:41:03.203Z,100348.75
2019-05-23T17:43:40.286Z,100348.40
2019-05-23T17:46:12.986Z,100347.30
2019-05-23T17:48:47.464Z,100352.42
2019-05-23T17:51:27.141Z,100365.42
2019-05-23T17:54:00.461Z,100368.56
2019-05-23T17:56:48.279Z,100372.84
2019-05-23T17:59:17.144Z,100376.23
2019-05-23T18:02:09.752Z,100377.57
2019-05-23T18:04:52.003Z,100377.94
2019-05-23T18:07:23.308Z,100380.36
2019-05-23T18:09:57.573Z,100380.44
2019-05-23T18:12:32.410Z,100376.42
2019-05-23T18:15:10.988Z,100380.91
2019-05-23T18:17:43.831Z,100390.02
2019-05-23T18:20:16.586Z,100389.16
2019-05-23T18:22:55.126Z,100388.04
2019-05-23T18:25:29.672Z,100401.67
2019-05-23T18:28:06.929Z,100396.54
2019-05-23T18:30:59.256Z,100395.69
2019-05-23T18:33:32.646Z,100389.73
2019-05-23T18:36:12.774Z,100394.92
2019-05-23T18:38:47.939Z,100396.52
2019-05-23T18:41:20.805Z,100404.98
2019-05-23T18:44:06.267Z,100398.23
2019-05-23T18:46:44.041Z,100404.77
2019-05-23T18:49:18.665Z,100402.61
2019-05-23T18:51:58.835Z,100402.83
2019-05-23T18:54:31.469Z,100405.71
2019-05-23T18:57:13.173Z,100401.20
2019-05-23T18:59:51.219Z,100410.05
2019-05-23T19:02:24.491Z,100412.56
2019-05-23T19:04:56.811Z,100410.96
2019-05-23T19:07:39.802Z,100413.40
2019-05-23T19:10:20.621Z,100418.95
2019-05-23T19:12:59.015Z,100415.51
2019-05-23T19:15:33.758Z,100419.48
2019-05-23T19:18:08.367Z,100418.84
2019-05-23T19:20:40.933Z,100418.70
2019-05-23T19:23:15.047Z,100422.23
2019-05-23T19:25:47.835Z,100429.34
2019-05-23T19:28:21.771Z,100433.20
2019-05-23T19:30:54.458Z,100437.05
2019-05-23T19:33:26.586Z,100437.76
2019-05-23T19:36:01.142Z,100434.06
2019-05-23T19:38:35.130Z,100435.26
2019-05-23T19:41:09.359Z,100440.33
2019-05-23T19:44:01.515Z,100445.05
2019-05-23T19:46:27.130Z,100450.97
2019-05-23T19:49:05.993Z,100454.63
2019-05-23T19:51:38.896Z,100455.58
2019-05-23T19:54:16.907Z,100457.30
2019-05-23T19:56:52.576Z,100458.94
2019-05-23T19:59:27.082Z,100456.06
2019-05-23T20:02:20.934Z,100448.00
2019-05-23T20:05:06.552Z,100448.96
2019-05-23T20:07:46.827Z,100446.02
2019-05-23T20:10:29.318Z,100444.20
2019-05-23T20:13:03.431Z,100446.49
2019-05-23T20:15:46.647Z,100450.73
2019-05-23T20:18:27.326Z,100448.16
2019-05-23T20:21:00.513Z,100448.48
2019-05-23T20:23:34.344Z,100449.74
2019-05-23T20:26:08.241Z,100452.89
2019-05-23T20:29:22.142Z,100452.74
2019-05-23T20:31:55.327Z,100453.04
2019-05-23T20:34:31.024Z,100453.27
2019-05-23T20:37:03.771Z,100452.12
2019-05-23T20:39:36.666Z,100456.61
2019-05-23T20:42:30.559Z,100451.84
2019-05-23T20:45:03.351Z,100458.27
2019-05-23T20:47:41.094Z,100450.41
2019-05-23T20:50:14.846Z,100450.41
2019-05-23T20:52:47.493Z,100451.94
2019-05-23T20:55:20.174Z,100447.78
2019-05-23T20:57:52.967Z,100449.30
2019-05-23T21:00:35.775Z,100446.48
2019-05-23T21:03:10.289Z,100446.58
2019-05-23T21:05:42.455Z,100447.25
2019-05-23T21:08:15.029Z,100446.52
2019-05-23T21:10:48.952Z,100451.48
2019-05-23T21:13:21.161Z,100453.19
2019-05-23T21:15:53.496Z,100449.03
2019-05-23T21:18:25.952Z,100441.22
2019-05-23T21:20:58.324Z,100444.36
2019-05-23T21:23:31.000Z,100441.60
2019-05-23T21:26:05.015Z,100448.36
2019-05-23T21:28:37.689Z,100449.44
2019-05-23T21:31:11.497Z,100451.44
2019-05-23T21:33:44.998Z,100450.77
2019-05-23T21:36:17.060Z,100452.20
2019-05-23T21:38:49.733Z,100448.96
2019-05-23T21:41:21.908Z,100450.77
2019-05-23T21:43:55.713Z,100452.32
2019-05-23T21:46:27.979Z,100457.45
2019-05-23T21:49:01.471Z,100452.34
2019-05-23T21:51:34.672Z,100453.58
2019-05-23T21:54:06.953Z,100458.44
2019-05-23T21:56:39.518Z,100453.13
2019-05-23T21:59:11.998Z,100456.86
2019-05-23T22:01:46.105Z,100449.44
2019-05-23T22:04:29.339Z,100458.85
2019-05-23T22:07:01.934Z,100457.99
2019-05-23T22:09:34.686Z,100447.42
2019-05-23T22:12:06.856Z,100449.36
2019-05-23T22:14:39.738Z,100452.97
2019-05-23T22:17:12.315Z,100445.64
2019-05-23T22:19:44.688Z,100454.20
2019-05-23T22:22:17.194Z,100444.61
2019-05-23T22:24:49.842Z,100443.84
2019-05-23T22:27:22.419Z,100441.56
2019-05-23T22:29:54.991Z,100431.78
2019-05-23T22:32:28.192Z,100431.78
2019-05-23T22:35:01.994Z,100443.17
2019-05-23T22:37:34.575Z,100440.63
2019-05-23T22:40:07.040Z,100446.70
2019-05-23T22:42:39.367Z,100451.39
2019-05-23T22:45:13.215Z,100445.00
2019-05-23T22:47:45.289Z,100449.47
2019-05-23T22:50:17.915Z,100448.62
2019-05-23T22:52:50.154Z,100453.77
2019-05-23T22:55:22.617Z,100452.14
2019-05-23T22:57:55.199Z,100451.38
2019-05-23T23:00:36.011Z,100447.12
2019-05-23T23:03:08.432Z,100453.00
2019-05-23T23:05:40.695Z,100454.81
2019-05-23T23:08:13.191Z,100455.28
2019-05-23T23:10:45.751Z,100458.13
2019-05-23T23:13:18.330Z,100459.84
2019-05-23T23:15:50.910Z,100465.08
2019-05-23T23:18:23.387Z,100462.33
2019-05-23T23:20:55.867Z,100466.11
2019-05-23T23:23:28.225Z,100458.89
2019-05-23T23:26:01.447Z,100459.03
2019-05-23T23:28:37.171Z,100460.56
2019-05-23T23:31:09.740Z,100459.80
2019-05-23T23:33:41.921Z,100463.78
2019-05-23T23:36:18.892Z,100459.23
2019-05-23T23:38:52.706Z,100452.28
2019-05-23T23:41:25.173Z,100455.89
2019-05-23T23:43:59.778Z,100451.42
2019-05-23T23:46:49.503Z,100451.98
2019-05-23T23:49:39.559Z,100454.65
2019-05-23T23:52:29.642Z,100453.91
2019-05-23T23:55:19.839Z,100454.85
2019-05-23T23:58:00.195Z,100456.36
